Date,TemperatureHighF,TemperatureAvgF,TemperatureLowF,DewpointHighF,DewpointAvgF,DewpointLowF,HumidityHigh,HumidityAvg,HumidityLow,PressureMaxIn,PressureMinIn,WindSpeedMaxMPH,WindSpeedAvgMPH,GustSpeedMaxMPH,PrecipitationSumIn
2013-5-1,82,76,72,74,73,71,100,91,74,29.83,29.68,17,6,17,0.00
2013-5-2,80,69,55,73,63,45,99,80,62,30.19,29.76,33,8,33,0.05
2013-5-3,70,60,52,46,37,32,71,44,27,30.24,30.03,31,8,31,0.00
2013-5-4,76,65,51,57,49,40,82,59,32,30.05,29.85,20,6,20,0.00
2013-5-5,78,68,56,63,58,54,93,72,52,30.03,29.89,16,4,16,0.00
2013-5-6,77,69,58,65,60,56,97,74,56,30.05,29.92,15,4,15,0.00
2013-5-7,79,72,62,68,64,60,96,77,60,30.01,29.90,19,6,19,0.00
2013-5-8,80,75,71,71,69,67,93,84,70,29.96,29.85,22,9,22,0.00
2013-5-9,79,76,73,75,73,71,99,92,84,29.89,29.75,22,9,22,0.00
2013-5-10,78,75,72,77,73,69,99,96,90,29.87,29.75,23,6,23,0.06
2013-5-11,82,75,70,72,69,67,99,83,65,30.02,29.86,14,6,19,0.21
2013-5-12,77,72,66,72,65,59,98,80,63,30.11,29.97,20,6,20,0.91
2013-5-13,80,73,65,68,66,63,96,80,62,30.19,30.08,18,6,18,0.00
2013-5-14,82,76,72,73,70,67,92,84,71,30.15,30.00,21,8,21,0.00
2013-5-15,79,76,73,75,73,71,100,92,85,30.05,29.82,26,10,26,0.28
2013-5-16,82,77,74,76,74,71,95,90,81,29.84,29.68,31,10,31,0.00
2013-5-17,84,78,75,76,74,72,96,89,69,29.84,29.72,26,9,26,0.00
2013-5-18,84,79,76,77,75,73,98,90,71,29.86,29.76,27,8,27,0.01
2013-5-19,83,79,76,77,76,74,96,90,79,29.82,29.69,19,4,19,0.00
2013-5-20,84,79,76,77,76,75,97,91,80,29.78,29.66,16,4,16,0.00
2013-5-21,84,80,77,78,76,75,98,91,79,29.74,29.64,15,4,15,0.00
2013-5-22,84,80,77,78,77,75,99,91,76,29.82,29.71,15,4,15,0.00
2013-5-23,85,80,77,79,77,76,99,92,81,29.92,29.78,16,4,16,0.00
2013-5-24,85,80,78,78,77,75,98,90,76,30.02,29.89,19,5,19,0.00
2013-5-25,83,80,78,78,76,75,95,91,84,30.03,29.94,16,5,16,0.00
2013-5-26,84,80,77,75,74,73,92,84,71,30.02,29.90,16,4,16,0.00
2013-5-27,86,81,78,77,76,74,94,85,73,29.95,29.81,17,4,17,0.00
2013-5-28,86,81,78,78,76,74,93,86,74,29.85,29.73,18,6,18,0.00
2013-5-29,83,80,78,78,77,74,97,90,82,29.79,29.67,20,4,20,0.06
2013-5-30,88,82,77,79,77,63,97,87,61,29.77,29.69,23,6,23,0.01
2013-5-31,88,83,79,79,78,76,94,86,73,29.81,29.72,26,11,26,0.00